sensor_id;sensor_type;location;lat;lon;timestamp;P1;durP1;ratioP1;P2;durP2;ratioP2
75499;SDS011;64076;51.466;7.260;2023-03-14T00:00:14;3.53;;;2.05;;
75499;SDS011;64076;51.466;7.260;2023-03-14T00:02:40;4.03;;;2.30;;
75499;SDS011;64076;51.466;7.260;2023-03-14T00:05:07;3.00;;;1.90;;
75499;SDS011;64076;51.466;7.260;2023-03-14T00:07:33;3.40;;;2.10;;
75499;SDS011;64076;51.466;7.260;2023-03-14T00:10:00;3.83;;;1.98;;
75499;SDS011;64076;51.466;7.260;2023-03-14T00:12:28;3.97;;;1.80;;
75499;SDS011;64076;51.466;7.260;2023-03-14T00:14:54;2.83;;;2.00;;
75499;SDS011;64076;51.466;7.260;2023-03-14T00:17:20;3.63;;;2.10;;
75499;SDS011;64076;51.466;7.260;2023-03-14T00:19:46;4.27;;;2.10;;
75499;SDS011;64076;51.466;7.260;2023-03-14T00:22:14;3.58;;;1.95;;
75499;SDS011;64076;51.466;7.260;2023-03-14T00:24:40;3.85;;;1.85;;
75499;SDS011;64076;51.466;7.260;2023-03-14T00:27:06;3.38;;;1.98;;
75499;SDS011;64076;51.466;7.260;2023-03-14T00:29:32;4.87;;;2.00;;
75499;SDS011;64076;51.466;7.260;2023-03-14T00:31:58;3.33;;;2.30;;
75499;SDS011;64076;51.466;7.260;2023-03-14T00:34:27;3.40;;;2.10;;
75499;SDS011;64076;51.466;7.260;2023-03-14T00:36:53;3.28;;;1.90;;
75499;SDS011;64076;51.466;7.260;2023-03-14T00:39:19;3.37;;;1.90;;
75499;SDS011;64076;51.466;7.260;2023-03-14T00:41:45;4.75;;;2.13;;
75499;SDS011;64076;51.466;7.260;2023-03-14T00:44:12;3.92;;;2.00;;
75499;SDS011;64076;51.466;7.260;2023-03-14T00:46:38;3.20;;;1.80;;
75499;SDS011;64076;51.466;7.260;2023-03-14T00:49:04;2.83;;;1.90;;
75499;SDS011;64076;51.466;7.260;2023-03-14T00:51:30;4.07;;;2.20;;
75499;SDS011;64076;51.466;7.260;2023-03-14T00:53:56;2.70;;;1.80;;
75499;SDS011;64076;51.466;7.260;2023-03-14T00:56:22;3.85;;;1.92;;
75499;SDS011;64076;51.466;7.260;2023-03-14T00:58:48;3.93;;;2.10;;
75499;SDS011;64076;51.466;7.260;2023-03-14T01:01:15;3.40;;;2.00;;
75499;SDS011;64076;51.466;7.260;2023-03-14T01:03:41;3.35;;;2.13;;
75499;SDS011;64076;51.466;7.260;2023-03-14T01:06:11;3.22;;;1.92;;
75499;SDS011;64076;51.466;7.260;2023-03-14T01:08:38;3.97;;;2.07;;
75499;SDS011;64076;51.466;7.260;2023-03-14T01:11:08;3.35;;;2.00;;
75499;SDS011;64076;51.466;7.260;2023-03-14T01:13:34;3.85;;;2.35;;
75499;SDS011;64076;51.466;7.260;2023-03-14T01:16:05;3.50;;;2.15;;
75499;SDS011;64076;51.466;7.260;2023-03-14T01:18:32;3.08;;;2.10;;
75499;SDS011;64076;51.466;7.260;2023-03-14T01:20:58;4.20;;;1.93;;
75499;SDS011;64076;51.466;7.260;2023-03-14T01:23:24;3.47;;;2.03;;
75499;SDS011;64076;51.466;7.260;2023-03-14T01:25:50;3.25;;;2.13;;
75499;SDS011;64076;51.466;7.260;2023-03-14T01:28:16;3.88;;;1.80;;
75499;SDS011;64076;51.466;7.260;2023-03-14T01:30:42;3.40;;;2.40;;
75499;SDS011;64076;51.466;7.260;2023-03-14T01:33:08;4.07;;;2.10;;
75499;SDS011;64076;51.466;7.260;2023-03-14T01:35:34;3.92;;;2.00;;
75499;SDS011;64076;51.466;7.260;2023-03-14T01:38:00;3.72;;;1.90;;
75499;SDS011;64076;51.466;7.260;2023-03-14T01:40:26;3.63;;;1.90;;
75499;SDS011;64076;51.466;7.260;2023-03-14T01:42:55;3.47;;;1.95;;
75499;SDS011;64076;51.466;7.260;2023-03-14T01:48:06;2.90;;;1.80;;
75499;SDS011;64076;51.466;7.260;2023-03-14T01:50:31;4.80;;;2.30;;
75499;SDS011;64076;51.466;7.260;2023-03-14T01:52:57;3.35;;;2.00;;
75499;SDS011;64076;51.466;7.260;2023-03-14T01:55:23;3.38;;;1.88;;
75499;SDS011;64076;51.466;7.260;2023-03-14T01:57:54;2.92;;;2.03;;
75499;SDS011;64076;51.466;7.260;2023-03-14T02:00:22;3.50;;;2.07;;
75499;SDS011;64076;51.466;7.260;2023-03-14T02:02:49;3.60;;;1.83;;
75499;SDS011;64076;51.466;7.260;2023-03-14T02:05:17;3.30;;;1.80;;
75499;SDS011;64076;51.466;7.260;2023-03-14T02:07:48;3.15;;;1.90;;
75499;SDS011;64076;51.466;7.260;2023-03-14T02:10:16;3.15;;;1.90;;
75499;SDS011;64076;51.466;7.260;2023-03-14T02:12:44;2.67;;;1.73;;
75499;SDS011;64076;51.466;7.260;2023-03-14T02:15:10;3.53;;;1.70;;
75499;SDS011;64076;51.466;7.260;2023-03-14T02:17:36;2.85;;;1.83;;
75499;SDS011;64076;51.466;7.260;2023-03-14T02:22:30;3.60;;;2.08;;
75499;SDS011;64076;51.466;7.260;2023-03-14T02:25:08;4.97;;;1.90;;
75499;SDS011;64076;51.466;7.260;2023-03-14T02:27:34;5.28;;;2.10;;
75499;SDS011;64076;51.466;7.260;2023-03-14T02:30:04;4.25;;;1.70;;
75499;SDS011;64076;51.466;7.260;2023-03-14T02:32:31;3.35;;;1.80;;
75499;SDS011;64076;51.466;7.260;2023-03-14T02:34:59;3.30;;;1.80;;
75499;SDS011;64076;51.466;7.260;2023-03-14T02:37:27;5.27;;;1.87;;
75499;SDS011;64076;51.466;7.260;2023-03-14T02:39:54;3.00;;;1.90;;
75499;SDS011;64076;51.466;7.260;2023-03-14T02:42:20;3.17;;;1.70;;
75499;SDS011;64076;51.466;7.260;2023-03-14T02:47:31;4.55;;;2.05;;
75499;SDS011;64076;51.466;7.260;2023-03-14T02:49:59;3.70;;;1.90;;
75499;SDS011;64076;51.466;7.260;2023-03-14T02:52:26;4.32;;;2.10;;
75499;SDS011;64076;51.466;7.260;2023-03-14T02:54:52;3.25;;;1.90;;
75499;SDS011;64076;51.466;7.260;2023-03-14T02:57:17;3.90;;;2.00;;
75499;SDS011;64076;51.466;7.260;2023-03-14T02:59:43;3.73;;;1.70;;
75499;SDS011;64076;51.466;7.260;2023-03-14T03:02:09;3.75;;;1.60;;
75499;SDS011;64076;51.466;7.260;2023-03-14T03:04:35;3.38;;;1.70;;
75499;SDS011;64076;51.466;7.260;2023-03-14T03:07:01;4.33;;;2.00;;
75499;SDS011;64076;51.466;7.260;2023-03-14T03:09:27;3.53;;;1.77;;
75499;SDS011;64076;51.466;7.260;2023-03-14T03:11:53;4.03;;;1.90;;
75499;SDS011;64076;51.466;7.260;2023-03-14T03:14:19;2.53;;;1.60;;
75499;SDS011;64076;51.466;7.260;2023-03-14T03:16:45;3.57;;;1.73;;
75499;SDS011;64076;51.466;7.260;2023-03-14T03:19:11;4.15;;;1.80;;
75499;SDS011;64076;51.466;7.260;2023-03-14T03:21:38;3.35;;;1.70;;
75499;SDS011;64076;51.466;7.260;2023-03-14T03:24:04;3.30;;;1.80;;
75499;SDS011;64076;51.466;7.260;2023-03-14T03:26:32;3.63;;;1.83;;
75499;SDS011;64076;51.466;7.260;2023-03-14T03:28:58;3.72;;;2.00;;
75499;SDS011;64076;51.466;7.260;2023-03-14T03:31:24;4.70;;;2.33;;
75499;SDS011;64076;51.466;7.260;2023-03-14T03:33:50;3.95;;;2.00;;
75499;SDS011;64076;51.466;7.260;2023-03-14T03:36:20;4.07;;;1.80;;
75499;SDS011;64076;51.466;7.260;2023-03-14T03:38:46;3.60;;;1.90;;
75499;SDS011;64076;51.466;7.260;2023-03-14T03:41:12;3.50;;;1.90;;
75499;SDS011;64076;51.466;7.260;2023-03-14T03:43:38;3.65;;;1.70;;
75499;SDS011;64076;51.466;7.260;2023-03-14T03:46:04;4.27;;;1.70;;
75499;SDS011;64076;51.466;7.260;2023-03-14T03:48:30;3.25;;;1.63;;
75499;SDS011;64076;51.466;7.260;2023-03-14T03:50:56;3.25;;;1.70;;
75499;SDS011;64076;51.466;7.260;2023-03-14T03:53:22;2.88;;;1.48;;
75499;SDS011;64076;51.466;7.260;2023-03-14T03:55:48;4.07;;;1.80;;
75499;SDS011;64076;51.466;7.260;2023-03-14T03:58:14;4.43;;;1.97;;
75499;SDS011;64076;51.466;7.260;2023-03-14T04:00:40;4.85;;;1.90;;
75499;SDS011;64076;51.466;7.260;2023-03-14T04:03:06;3.25;;;1.60;;
75499;SDS011;64076;51.466;7.260;2023-03-14T04:05:32;4.07;;;1.80;;
75499;SDS011;64076;51.466;7.260;2023-03-14T04:07:59;4.00;;;1.90;;
75499;SDS011;64076;51.466;7.260;2023-03-14T04:10:25;3.45;;;1.55;;
75499;SDS011;64076;51.466;7.260;2023-03-14T04:12:51;3.42;;;1.80;;
75499;SDS011;64076;51.466;7.260;2023-03-14T04:15:17;3.45;;;1.70;;
75499;SDS011;64076;51.466;7.260;2023-03-14T04:17:43;4.22;;;1.77;;
75499;SDS011;64076;51.466;7.260;2023-03-14T04:20:09;3.10;;;1.77;;
75499;SDS011;64076;51.466;7.260;2023-03-14T04:22:36;3.75;;;1.70;;
75499;SDS011;64076;51.466;7.260;2023-03-14T04:25:02;4.43;;;2.03;;
75499;SDS011;64076;51.466;7.260;2023-03-14T04:27:28;3.25;;;1.80;;
75499;SDS011;64076;51.466;7.260;2023-03-14T04:29:54;4.10;;;1.90;;
75499;SDS011;64076;51.466;7.260;2023-03-14T04:32:20;3.85;;;1.80;;
75499;SDS011;64076;51.466;7.260;2023-03-14T04:34:46;4.18;;;1.58;;
75499;SDS011;64076;51.466;7.260;2023-03-14T04:37:12;3.40;;;1.80;;
75499;SDS011;64076;51.466;7.260;2023-03-14T04:39:38;4.57;;;1.70;;
75499;SDS011;64076;51.466;7.260;2023-03-14T04:42:04;2.53;;;1.80;;
75499;SDS011;64076;51.466;7.260;2023-03-14T04:44:30;2.88;;;1.80;;
75499;SDS011;64076;51.466;7.260;2023-03-14T04:46:56;3.97;;;1.90;;
75499;SDS011;64076;51.466;7.260;2023-03-14T04:49:22;2.80;;;1.45;;
75499;SDS011;64076;51.466;7.260;2023-03-14T04:51:48;4.00;;;1.83;;
75499;SDS011;64076;51.466;7.260;2023-03-14T04:54:18;3.97;;;1.60;;
75499;SDS011;64076;51.466;7.260;2023-03-14T04:56:44;3.70;;;1.60;;
75499;SDS011;64076;51.466;7.260;2023-03-14T04:59:10;3.07;;;1.70;;
75499;SDS011;64076;51.466;7.260;2023-03-14T05:01:36;3.10;;;1.80;;
75499;SDS011;64076;51.466;7.260;2023-03-14T05:04:02;3.75;;;1.52;;
75499;SDS011;64076;51.466;7.260;2023-03-14T05:06:28;3.53;;;1.60;;
75499;SDS011;64076;51.466;7.260;2023-03-14T05:08:53;3.10;;;1.55;;
75499;SDS011;64076;51.466;7.260;2023-03-14T05:11:19;3.43;;;1.93;;
75499;SDS011;64076;51.466;7.260;2023-03-14T05:13:45;2.60;;;1.42;;
75499;SDS011;64076;51.466;7.260;2023-03-14T05:16:11;4.32;;;1.60;;
75499;SDS011;64076;51.466;7.260;2023-03-14T05:18:37;3.80;;;1.60;;
75499;SDS011;64076;51.466;7.260;2023-03-14T05:21:03;4.07;;;1.60;;
75499;SDS011;64076;51.466;7.260;2023-03-14T05:23:30;3.97;;;1.77;;
75499;SDS011;64076;51.466;7.260;2023-03-14T05:25:56;2.83;;;1.40;;
75499;SDS011;64076;51.466;7.260;2023-03-14T05:28:22;3.13;;;1.40;;
75499;SDS011;64076;51.466;7.260;2023-03-14T05:30:48;3.43;;;1.60;;
75499;SDS011;64076;51.466;7.260;2023-03-14T05:33:14;3.63;;;1.42;;
75499;SDS011;64076;51.466;7.260;2023-03-14T05:35:40;2.90;;;1.45;;
75499;SDS011;64076;51.466;7.260;2023-03-14T05:38:05;3.28;;;1.50;;
75499;SDS011;64076;51.466;7.260;2023-03-14T05:40:31;2.67;;;1.40;;
75499;SDS011;64076;51.466;7.260;2023-03-14T05:42:57;2.50;;;1.27;;
75499;SDS011;64076;51.466;7.260;2023-03-14T05:45:23;2.72;;;1.40;;
75499;SDS011;64076;51.466;7.260;2023-03-14T05:47:49;3.10;;;1.40;;
75499;SDS011;64076;51.466;7.260;2023-03-14T05:50:15;2.80;;;1.73;;
75499;SDS011;64076;51.466;7.260;2023-03-14T05:52:41;3.05;;;1.50;;
75499;SDS011;64076;51.466;7.260;2023-03-14T05:55:07;3.00;;;1.40;;
75499;SDS011;64076;51.466;7.260;2023-03-14T05:57:33;3.03;;;1.50;;
75499;SDS011;64076;51.466;7.260;2023-03-14T05:59:59;3.13;;;1.47;;
75499;SDS011;64076;51.466;7.260;2023-03-14T06:02:25;2.72;;;1.27;;
75499;SDS011;64076;51.466;7.260;2023-03-14T06:04:51;2.53;;;1.33;;
75499;SDS011;64076;51.466;7.260;2023-03-14T06:07:17;3.35;;;1.67;;
75499;SDS011;64076;51.466;7.260;2023-03-14T06:09:43;3.07;;;1.47;;
75499;SDS011;64076;51.466;7.260;2023-03-14T06:12:09;2.97;;;1.30;;
75499;SDS011;64076;51.466;7.260;2023-03-14T06:14:35;5.03;;;0.90;;
75499;SDS011;64076;51.466;7.260;2023-03-14T06:17:01;3.03;;;1.00;;
75499;SDS011;64076;51.466;7.260;2023-03-14T06:19:27;1.40;;;0.73;;
75499;SDS011;64076;51.466;7.260;2023-03-14T06:21:53;2.85;;;0.73;;
75499;SDS011;64076;51.466;7.260;2023-03-14T06:24:19;2.65;;;0.68;;
75499;SDS011;64076;51.466;7.260;2023-03-14T06:26:45;1.83;;;1.00;;
75499;SDS011;64076;51.466;7.260;2023-03-14T06:29:11;1.58;;;0.50;;
75499;SDS011;64076;51.466;7.260;2023-03-14T06:31:38;1.88;;;0.88;;
75499;SDS011;64076;51.466;7.260;2023-03-14T06:34:04;1.92;;;0.70;;
75499;SDS011;64076;51.466;7.260;2023-03-14T06:36:30;1.50;;;0.60;;
75499;SDS011;64076;51.466;7.260;2023-03-14T06:38:56;2.47;;;0.60;;
75499;SDS011;64076;51.466;7.260;2023-03-14T06:41:22;1.90;;;0.65;;
75499;SDS011;64076;51.466;7.260;2023-03-14T06:43:50;1.60;;;0.60;;
75499;SDS011;64076;51.466;7.260;2023-03-14T06:46:17;1.40;;;0.47;;
75499;SDS011;64076;51.466;7.260;2023-03-14T06:48:43;2.17;;;0.60;;
75499;SDS011;64076;51.466;7.260;2023-03-14T06:51:09;1.45;;;0.60;;
75499;SDS011;64076;51.466;7.260;2023-03-14T06:53:35;1.38;;;0.50;;
75499;SDS011;64076;51.466;7.260;2023-03-14T06:56:01;2.35;;;0.50;;
75499;SDS011;64076;51.466;7.260;2023-03-14T06:58:27;1.83;;;0.50;;
75499;SDS011;64076;51.466;7.260;2023-03-14T07:00:53;1.10;;;0.30;;
75499;SDS011;64076;51.466;7.260;2023-03-14T07:03:19;1.98;;;0.55;;
75499;SDS011;64076;51.466;7.260;2023-03-14T07:05:45;2.80;;;0.40;;
75499;SDS011;64076;51.466;7.260;2023-03-14T07:08:11;1.15;;;0.30;;
75499;SDS011;64076;51.466;7.260;2023-03-14T07:10:37;1.30;;;0.40;;
75499;SDS011;64076;51.466;7.260;2023-03-14T07:13:03;1.38;;;0.20;;
75499;SDS011;64076;51.466;7.260;2023-03-14T07:15:29;2.55;;;0.30;;
75499;SDS011;64076;51.466;7.260;2023-03-14T07:17:55;1.75;;;0.32;;
75499;SDS011;64076;51.466;7.260;2023-03-14T07:20:21;1.30;;;0.40;;
75499;SDS011;64076;51.466;7.260;2023-03-14T07:22:48;1.60;;;0.40;;
75499;SDS011;64076;51.466;7.260;2023-03-14T07:25:16;1.17;;;0.40;;
75499;SDS011;64076;51.466;7.260;2023-03-14T07:27:45;1.20;;;0.50;;
75499;SDS011;64076;51.466;7.260;2023-03-14T07:30:12;1.00;;;0.47;;
75499;SDS011;64076;51.466;7.260;2023-03-14T07:32:38;1.00;;;0.22;;
75499;SDS011;64076;51.466;7.260;2023-03-14T07:35:04;1.73;;;0.50;;
75499;SDS011;64076;51.466;7.260;2023-03-14T07:37:30;0.90;;;0.20;;
75499;SDS011;64076;51.466;7.260;2023-03-14T07:39:55;1.07;;;0.30;;
75499;SDS011;64076;51.466;7.260;2023-03-14T07:42:21;1.23;;;0.38;;
75499;SDS011;64076;51.466;7.260;2023-03-14T07:44:46;1.20;;;0.37;;
75499;SDS011;64076;51.466;7.260;2023-03-14T07:47:12;0.90;;;0.40;;
75499;SDS011;64076;51.466;7.260;2023-03-14T07:49:37;1.15;;;0.40;;
75499;SDS011;64076;51.466;7.260;2023-03-14T07:52:03;1.07;;;0.40;;
75499;SDS011;64076;51.466;7.260;2023-03-14T07:54:28;0.80;;;0.20;;
75499;SDS011;64076;51.466;7.260;2023-03-14T07:56:54;1.42;;;0.40;;
75499;SDS011;64076;51.466;7.260;2023-03-14T07:59:19;1.63;;;0.23;;
75499;SDS011;64076;51.466;7.260;2023-03-14T08:01:45;1.10;;;0.20;;
75499;SDS011;64076;51.466;7.260;2023-03-14T08:04:11;1.00;;;0.40;;
75499;SDS011;64076;51.466;7.260;2023-03-14T08:06:37;0.95;;;0.30;;
75499;SDS011;64076;51.466;7.260;2023-03-14T08:09:03;1.10;;;0.30;;
75499;SDS011;64076;51.466;7.260;2023-03-14T08:11:29;1.48;;;0.73;;
75499;SDS011;64076;51.466;7.260;2023-03-14T08:13:55;0.90;;;0.30;;
75499;SDS011;64076;51.466;7.260;2023-03-14T08:16:20;2.70;;;0.23;;
75499;SDS011;64076;51.466;7.260;2023-03-14T08:18:46;0.95;;;0.30;;
75499;SDS011;64076;51.466;7.260;2023-03-14T08:21:12;1.10;;;0.20;;
75499;SDS011;64076;51.466;7.260;2023-03-14T08:23:38;1.38;;;0.20;;
75499;SDS011;64076;51.466;7.260;2023-03-14T08:26:04;1.00;;;0.20;;
75499;SDS011;64076;51.466;7.260;2023-03-14T08:28:29;0.98;;;0.30;;
75499;SDS011;64076;51.466;7.260;2023-03-14T08:30:57;0.95;;;0.45;;
75499;SDS011;64076;51.466;7.260;2023-03-14T08:33:23;1.00;;;0.30;;
75499;SDS011;64076;51.466;7.260;2023-03-14T08:35:53;0.90;;;0.20;;
75499;SDS011;64076;51.466;7.260;2023-03-14T08:38:19;1.48;;;0.22;;
75499;SDS011;64076;51.466;7.260;2023-03-14T08:40:45;0.77;;;0.20;;
75499;SDS011;64076;51.466;7.260;2023-03-14T08:43:11;0.90;;;0.30;;
75499;SDS011;64076;51.466;7.260;2023-03-14T08:45:36;0.90;;;0.30;;
75499;SDS011;64076;51.466;7.260;2023-03-14T08:48:02;1.07;;;0.40;;
75499;SDS011;64076;51.466;7.260;2023-03-14T08:50:28;0.88;;;0.20;;
75499;SDS011;64076;51.466;7.260;2023-03-14T08:52:56;1.10;;;0.30;;
75499;SDS011;64076;51.466;7.260;2023-03-14T08:55:24;1.75;;;0.40;;
75499;SDS011;64076;51.466;7.260;2023-03-14T08:57:52;1.40;;;0.68;;
75499;SDS011;64076;51.466;7.260;2023-03-14T09:00:18;1.07;;;0.37;;
75499;SDS011;64076;51.466;7.260;2023-03-14T09:02:44;1.03;;;0.30;;
75499;SDS011;64076;51.466;7.260;2023-03-14T09:05:09;0.98;;;0.38;;
75499;SDS011;64076;51.466;7.260;2023-03-14T09:07:36;3.33;;;0.50;;
75499;SDS011;64076;51.466;7.260;2023-03-14T09:10:02;3.42;;;0.50;;
75499;SDS011;64076;51.466;7.260;2023-03-14T09:12:28;1.80;;;0.45;;
75499;SDS011;64076;51.466;7.260;2023-03-14T09:14:54;3.73;;;0.50;;
75499;SDS011;64076;51.466;7.260;2023-03-14T09:17:19;11.32;;;1.15;;
75499;SDS011;64076;51.466;7.260;2023-03-14T09:19:45;24.37;;;2.10;;
75499;SDS011;64076;51.466;7.260;2023-03-14T09:22:10;20.90;;;1.40;;
75499;SDS011;64076;51.466;7.260;2023-03-14T09:24:36;30.67;;;2.38;;
75499;SDS011;64076;51.466;7.260;2023-03-14T09:27:01;26.03;;;2.80;;
75499;SDS011;64076;51.466;7.260;2023-03-14T09:29:27;28.23;;;3.08;;
75499;SDS011;64076;51.466;7.260;2023-03-14T09:31:53;40.37;;;3.03;;
75499;SDS011;64076;51.466;7.260;2023-03-14T09:34:18;26.10;;;2.40;;
75499;SDS011;64076;51.466;7.260;2023-03-14T09:36:44;24.27;;;2.10;;
75499;SDS011;64076;51.466;7.260;2023-03-14T09:39:10;15.53;;;1.67;;
75499;SDS011;64076;51.466;7.260;2023-03-14T09:41:40;13.93;;;1.63;;
75499;SDS011;64076;51.466;7.260;2023-03-14T09:44:10;15.90;;;1.60;;
75499;SDS011;64076;51.466;7.260;2023-03-14T09:46:48;11.45;;;1.10;;
75499;SDS011;64076;51.466;7.260;2023-03-14T09:49:20;36.77;;;3.07;;
75499;SDS011;64076;51.466;7.260;2023-03-14T09:51:55;23.02;;;3.28;;
75499;SDS011;64076;51.466;7.260;2023-03-14T09:56:56;17.30;;;2.05;;
75499;SDS011;64076;51.466;7.260;2023-03-14T09:59:22;15.77;;;2.50;;
75499;SDS011;64076;51.466;7.260;2023-03-14T10:01:47;13.60;;;1.60;;
75499;SDS011;64076;51.466;7.260;2023-03-14T10:04:15;26.10;;;2.95;;
75499;SDS011;64076;51.466;7.260;2023-03-14T10:06:45;25.10;;;3.83;;
75499;SDS011;64076;51.466;7.260;2023-03-14T10:09:17;21.55;;;4.50;;
75499;SDS011;64076;51.466;7.260;2023-03-14T10:11:54;13.30;;;4.30;;
75499;SDS011;64076;51.466;7.260;2023-03-14T10:14:28;15.07;;;3.47;;
75499;SDS011;64076;51.466;7.260;2023-03-14T10:17:06;17.52;;;3.95;;
75499;SDS011;64076;51.466;7.260;2023-03-14T10:19:33;23.27;;;5.30;;
75499;SDS011;64076;51.466;7.260;2023-03-14T10:22:01;20.52;;;5.15;;
75499;SDS011;64076;51.466;7.260;2023-03-14T10:24:29;16.80;;;6.88;;
75499;SDS011;64076;51.466;7.260;2023-03-14T10:27:02;12.63;;;4.57;;
75499;SDS011;64076;51.466;7.260;2023-03-14T10:29:31;14.63;;;3.70;;
75499;SDS011;64076;51.466;7.260;2023-03-14T10:32:05;10.77;;;3.43;;
75499;SDS011;64076;51.466;7.260;2023-03-14T10:34:37;5.10;;;2.50;;
75499;SDS011;64076;51.466;7.260;2023-03-14T10:37:07;4.85;;;2.25;;
75499;SDS011;64076;51.466;7.260;2023-03-14T10:39:46;6.05;;;2.00;;
75499;SDS011;64076;51.466;7.260;2023-03-14T10:42:22;5.85;;;2.20;;
75499;SDS011;64076;51.466;7.260;2023-03-14T10:44:55;7.03;;;1.43;;
75499;SDS011;64076;51.466;7.260;2023-03-14T10:47:24;4.55;;;1.40;;
75499;SDS011;64076;51.466;7.260;2023-03-14T10:49:53;3.20;;;1.00;;
75499;SDS011;64076;51.466;7.260;2023-03-14T10:52:27;3.45;;;0.85;;
75499;SDS011;64076;51.466;7.260;2023-03-14T10:54:58;3.92;;;0.82;;
75499;SDS011;64076;51.466;7.260;2023-03-14T10:57:25;4.27;;;0.80;;
75499;SDS011;64076;51.466;7.260;2023-03-14T10:59:51;1.58;;;0.60;;
75499;SDS011;64076;51.466;7.260;2023-03-14T11:02:24;1.92;;;0.70;;
75499;SDS011;64076;51.466;7.260;2023-03-14T11:16:06;1.30;;;0.50;;
75499;SDS011;64076;51.466;7.260;2023-03-14T11:18:59;1.30;;;0.40;;
75499;SDS011;64076;51.466;7.260;2023-03-14T11:27:18;5.22;;;0.63;;
75499;SDS011;64076;51.466;7.260;2023-03-14T11:29:59;5.72;;;0.43;;
75499;SDS011;64076;51.466;7.260;2023-03-14T11:32:51;1.65;;;0.40;;
75499;SDS011;64076;51.466;7.260;2023-03-14T11:40:50;2.03;;;0.30;;
75499;SDS011;64076;51.466;7.260;2023-03-14T11:45:48;1.70;;;0.30;;
75499;SDS011;64076;51.466;7.260;2023-03-14T11:48:21;1.40;;;0.50;;
75499;SDS011;64076;51.466;7.260;2023-03-14T11:51:07;9.37;;;0.40;;
75499;SDS011;64076;51.466;7.260;2023-03-14T11:53:55;9.10;;;0.63;;
75499;SDS011;64076;51.466;7.260;2023-03-14T11:59:12;15.48;;;1.23;;
75499;SDS011;64076;51.466;7.260;2023-03-14T12:01:56;16.25;;;1.10;;
75499;SDS011;64076;51.466;7.260;2023-03-14T12:04:34;13.00;;;1.03;;
75499;SDS011;64076;51.466;7.260;2023-03-14T12:07:34;9.48;;;0.57;;
75499;SDS011;64076;51.466;7.260;2023-03-14T12:10:08;7.15;;;0.63;;
75499;SDS011;64076;51.466;7.260;2023-03-14T12:12:34;6.07;;;0.63;;
75499;SDS011;64076;51.466;7.260;2023-03-14T12:15:01;6.43;;;0.70;;
75499;SDS011;64076;51.466;7.260;2023-03-14T12:17:35;8.82;;;0.57;;
75499;SDS011;64076;51.466;7.260;2023-03-14T12:22:43;2.55;;;0.73;;
75499;SDS011;64076;51.466;7.260;2023-03-14T12:30:36;2.90;;;0.50;;
75499;SDS011;64076;51.466;7.260;2023-03-14T12:35:46;4.93;;;0.50;;
75499;SDS011;64076;51.466;7.260;2023-03-14T12:43:42;1.83;;;0.50;;
75499;SDS011;64076;51.466;7.260;2023-03-14T12:51:36;2.03;;;0.30;;
75499;SDS011;64076;51.466;7.260;2023-03-14T12:54:06;1.50;;;0.50;;
75499;SDS011;64076;51.466;7.260;2023-03-14T12:56:53;2.65;;;0.40;;
75499;SDS011;64076;51.466;7.260;2023-03-14T13:02:28;3.85;;;0.50;;
75499;SDS011;64076;51.466;7.260;2023-03-14T13:05:05;1.67;;;0.60;;
75499;SDS011;64076;51.466;7.260;2023-03-14T13:12:47;3.25;;;0.60;;
75499;SDS011;64076;51.466;7.260;2023-03-14T13:18:12;1.97;;;0.50;;
75499;SDS011;64076;51.466;7.260;2023-03-14T13:20:54;1.92;;;0.57;;
75499;SDS011;64076;51.466;7.260;2023-03-14T13:23:28;1.55;;;0.50;;
75499;SDS011;64076;51.466;7.260;2023-03-14T13:25:55;1.55;;;0.47;;
75499;SDS011;64076;51.466;7.260;2023-03-14T13:28:21;3.60;;;0.70;;
75499;SDS011;64076;51.466;7.260;2023-03-14T13:30:48;2.17;;;0.53;;
75499;SDS011;64076;51.466;7.260;2023-03-14T13:33:20;6.78;;;0.70;;
75499;SDS011;64076;51.466;7.260;2023-03-14T13:35:48;14.73;;;1.27;;
75499;SDS011;64076;51.466;7.260;2023-03-14T13:38:21;8.70;;;0.68;;
75499;SDS011;64076;51.466;7.260;2023-03-14T13:40:49;5.85;;;0.82;;
75499;SDS011;64076;51.466;7.260;2023-03-14T13:43:17;13.00;;;1.80;;
75499;SDS011;64076;51.466;7.260;2023-03-14T13:45:48;13.95;;;0.80;;
75499;SDS011;64076;51.466;7.260;2023-03-14T13:48:19;8.63;;;1.00;;
75499;SDS011;64076;51.466;7.260;2023-03-14T13:51:06;11.27;;;1.33;;
75499;SDS011;64076;51.466;7.260;2023-03-14T13:53:31;13.52;;;1.38;;
75499;SDS011;64076;51.466;7.260;2023-03-14T13:56:06;13.17;;;1.43;;
75499;SDS011;64076;51.466;7.260;2023-03-14T13:58:35;9.80;;;1.00;;
75499;SDS011;64076;51.466;7.260;2023-03-14T14:01:10;12.55;;;1.35;;
75499;SDS011;64076;51.466;7.260;2023-03-14T14:03:52;15.55;;;1.90;;
75499;SDS011;64076;51.466;7.260;2023-03-14T14:08:57;11.73;;;2.00;;
75499;SDS011;64076;51.466;7.260;2023-03-14T14:14:08;18.52;;;2.17;;
75499;SDS011;64076;51.466;7.260;2023-03-14T14:16:38;17.33;;;1.65;;
75499;SDS011;64076;51.466;7.260;2023-03-14T14:19:04;12.15;;;1.58;;
75499;SDS011;64076;51.466;7.260;2023-03-14T14:21:30;12.93;;;1.47;;
75499;SDS011;64076;51.466;7.260;2023-03-14T14:23:58;16.00;;;1.80;;
75499;SDS011;64076;51.466;7.260;2023-03-14T14:26:25;17.33;;;2.30;;
75499;SDS011;64076;51.466;7.260;2023-03-14T14:28:59;10.25;;;1.30;;
75499;SDS011;64076;51.466;7.260;2023-03-14T14:31:28;6.72;;;1.20;;
75499;SDS011;64076;51.466;7.260;2023-03-14T14:33:58;10.03;;;1.20;;
75499;SDS011;64076;51.466;7.260;2023-03-14T14:38:58;8.35;;;1.25;;
75499;SDS011;64076;51.466;7.260;2023-03-14T14:41:26;6.47;;;0.97;;
75499;SDS011;64076;51.466;7.260;2023-03-14T14:43:55;9.38;;;1.20;;
75499;SDS011;64076;51.466;7.260;2023-03-14T14:46:21;5.72;;;1.30;;
75499;SDS011;64076;51.466;7.260;2023-03-14T14:48:47;10.00;;;1.20;;
75499;SDS011;64076;51.466;7.260;2023-03-14T14:51:21;4.32;;;0.90;;
75499;SDS011;64076;51.466;7.260;2023-03-14T14:54:03;5.80;;;1.20;;
75499;SDS011;64076;51.466;7.260;2023-03-14T14:56:35;9.32;;;1.70;;
75499;SDS011;64076;51.466;7.260;2023-03-14T14:59:02;8.23;;;1.25;;
75499;SDS011;64076;51.466;7.260;2023-03-14T15:01:46;5.10;;;1.20;;
75499;SDS011;64076;51.466;7.260;2023-03-14T15:04:13;5.13;;;1.10;;
75499;SDS011;64076;51.466;7.260;2023-03-14T15:06:41;6.38;;;1.20;;
75499;SDS011;64076;51.466;7.260;2023-03-14T15:09:08;2.30;;;0.88;;
75499;SDS011;64076;51.466;7.260;2023-03-14T15:11:35;3.97;;;1.00;;
75499;SDS011;64076;51.466;7.260;2023-03-14T15:14:01;5.33;;;0.90;;
75499;SDS011;64076;51.466;7.260;2023-03-14T15:16:28;2.08;;;0.90;;
75499;SDS011;64076;51.466;7.260;2023-03-14T15:18:56;2.10;;;0.70;;
75499;SDS011;64076;51.466;7.260;2023-03-14T15:21:23;3.35;;;0.70;;
75499;SDS011;64076;51.466;7.260;2023-03-14T15:23:49;3.90;;;0.60;;
75499;SDS011;64076;51.466;7.260;2023-03-14T15:26:19;2.63;;;0.67;;
75499;SDS011;64076;51.466;7.260;2023-03-14T15:28:45;2.72;;;0.70;;
75499;SDS011;64076;51.466;7.260;2023-03-14T15:31:12;3.10;;;0.57;;
75499;SDS011;64076;51.466;7.260;2023-03-14T15:33:39;2.38;;;0.70;;
75499;SDS011;64076;51.466;7.260;2023-03-14T15:36:06;1.95;;;0.47;;
75499;SDS011;64076;51.466;7.260;2023-03-14T15:38:32;2.43;;;0.60;;
75499;SDS011;64076;51.466;7.260;2023-03-14T15:40:58;1.83;;;0.60;;
75499;SDS011;64076;51.466;7.260;2023-03-14T15:43:24;2.22;;;0.88;;
75499;SDS011;64076;51.466;7.260;2023-03-14T15:45:50;2.13;;;0.60;;
75499;SDS011;64076;51.466;7.260;2023-03-14T15:48:17;1.83;;;0.57;;
75499;SDS011;64076;51.466;7.260;2023-03-14T15:50:44;1.80;;;0.52;;
75499;SDS011;64076;51.466;7.260;2023-03-14T15:53:10;2.33;;;0.50;;
75499;SDS011;64076;51.466;7.260;2023-03-14T15:55:36;1.90;;;0.50;;
75499;SDS011;64076;51.466;7.260;2023-03-14T15:58:02;1.88;;;0.40;;
75499;SDS011;64076;51.466;7.260;2023-03-14T16:00:30;2.27;;;0.67;;
75499;SDS011;64076;51.466;7.260;2023-03-14T16:02:57;2.40;;;0.50;;
75499;SDS011;64076;51.466;7.260;2023-03-14T16:05:23;1.95;;;0.47;;
75499;SDS011;64076;51.466;7.260;2023-03-14T16:07:49;1.63;;;0.50;;